createdAt,value
2023-05-18T00:01:34.122Z,100070.47
2023-05-18T00:04:02.098Z,100075.69
2023-05-18T00:06:29.381Z,100074.72
2023-05-18T00:08:56.602Z,100065.22
2023-05-18T00:11:23.794Z,100068.78
2023-05-18T00:13:51.024Z,100059.97
2023-05-18T00:16:18.178Z,100057.31
2023-05-18T00:18:46.078Z,100059.84
2023-05-18T00:21:16.087Z,100057.91
2023-05-18T00:23:49.443Z,100054.34
2023-05-18T00:26:16.611Z,100058.75
2023-05-18T00:28:44.120Z,100056.88
2023-05-18T00:31:11.654Z,100062.94
2023-05-18T00:33:38.849Z,100059.56
2023-05-18T00:36:06.528Z,100060.31
2023-05-18T00:38:33.708Z,100055.78
2023-05-18T00:41:00.900Z,100059.28
2023-05-18T00:43:28.080Z,100056.75
2023-05-18T00:45:55.455Z,100057.44
2023-05-18T00:48:22.738Z,100059.94
2023-05-18T00:50:50.174Z,100052.91
2023-05-18T00:53:17.487Z,100057.25
2023-05-18T00:55:44.717Z,100053.75
2023-05-18T00:58:12.379Z,100057.97
2023-05-18T01:00:40.702Z,100065.88
2023-05-18T01:03:11.042Z,100060.56
2023-05-18T01:05:38.509Z,100070.94
2023-05-18T01:08:06.042Z,100081.09
2023-05-18T01:10:38.111Z,100083.63
2023-05-18T01:13:24.584Z,100089.97
2023-05-18T01:15:58.927Z,100091.84
2023-05-18T01:18:36.540Z,100084.81
2023-05-18T01:21:25.479Z,100091.00
2023-05-18T01:24:31.784Z,100087.50
2023-05-18T01:27:01.989Z,100091.13
2023-05-18T01:29:31.002Z,100086.59
2023-05-18T01:31:58.704Z,100084.03
2023-05-18T01:34:26.325Z,100090.09
2023-05-18T01:36:53.903Z,100094.44
2023-05-18T01:39:21.642Z,100081.22
2023-05-18T01:42:14.352Z,100081.22
2023-05-18T01:44:58.917Z,100081.16
2023-05-18T01:47:30.496Z,100082.91
2023-05-18T01:50:14.509Z,100082.06
2023-05-18T01:53:26.675Z,100085.66
2023-05-18T01:55:55.801Z,100085.59
2023-05-18T01:58:23.865Z,100086.59
2023-05-18T02:00:51.947Z,100085.72
2023-05-18T02:03:19.344Z,100083.91
2023-05-18T02:05:46.711Z,100089.16
2023-05-18T02:08:14.255Z,100089.16
2023-05-18T02:10:41.556Z,100095.09
2023-05-18T02:13:08.757Z,100093.44
2023-05-18T02:15:36.208Z,100094.25
2023-05-18T02:18:03.569Z,100090.75
2023-05-18T02:20:33.640Z,100085.38
2023-05-18T02:23:01.043Z,100081.66
2023-05-18T02:25:28.311Z,100082.81
2023-05-18T02:27:55.858Z,100076.50
2023-05-18T02:30:23.058Z,100084.22
2023-05-18T02:32:51.357Z,100083.44
2023-05-18T02:35:18.619Z,100078.19
2023-05-18T02:37:47.246Z,100078.97
2023-05-18T02:40:15.917Z,100079.75
2023-05-18T02:42:43.368Z,100087.69
2023-05-18T02:45:11.509Z,100085.94
2023-05-18T02:47:40.100Z,100103.34
2023-05-18T02:50:08.225Z,100094.38
2023-05-18T02:52:35.614Z,100091.13
2023-05-18T02:55:03.736Z,100102.44
2023-05-18T02:57:56.810Z,100097.19
2023-05-18T03:00:31.781Z,100098.84
2023-05-18T03:03:00.487Z,100102.31
2023-05-18T03:05:28.305Z,100098.84
2023-05-18T03:07:55.630Z,100091.84
2023-05-18T03:10:23.158Z,100098.91
2023-05-18T03:12:50.929Z,100099.63
2023-05-18T03:15:18.165Z,100108.22
2023-05-18T03:17:45.645Z,100099.56
2023-05-18T03:20:15.405Z,100105.78
2023-05-18T03:22:42.994Z,100102.56
2023-05-18T03:25:10.184Z,100103.34
2023-05-18T03:27:37.955Z,100105.13
2023-05-18T03:30:06.320Z,100105.00
2023-05-18T03:32:34.012Z,100106.72
2023-05-18T03:35:01.899Z,100111.91
2023-05-18T03:37:29.600Z,100113.59
2023-05-18T03:40:12.642Z,100123.22
2023-05-18T03:42:41.917Z,100126.75
2023-05-18T03:45:11.494Z,100130.25
2023-05-18T03:47:40.591Z,100128.66
2023-05-18T03:50:08.904Z,100133.84
2023-05-18T03:52:37.035Z,100132.06
2023-05-18T03:55:07.040Z,100136.53
2023-05-18T03:57:34.253Z,100138.19
2023-05-18T04:00:07.784Z,100137.19
2023-05-18T04:02:44.640Z,100143.31
2023-05-18T04:05:14.417Z,100148.44
2023-05-18T04:07:46.490Z,100144.88
2023-05-18T04:10:14.472Z,100146.72
2023-05-18T04:12:43.170Z,100143.97
2023-05-18T04:15:14.388Z,100146.59
2023-05-18T04:17:45.671Z,100147.56
2023-05-18T04:20:14.703Z,100151.13
2023-05-18T04:22:48.352Z,100156.28
2023-05-18T04:25:16.322Z,100155.13
2023-05-18T04:27:48.997Z,100151.78
2023-05-18T04:30:18.733Z,100163.97
2023-05-18T04:32:46.114Z,100163.09
2023-05-18T04:35:13.455Z,100164.63
2023-05-18T04:37:41.052Z,100166.28
2023-05-18T04:40:13.843Z,100168.81
2023-05-18T04:42:48.516Z,100161.00
2023-05-18T04:45:27.116Z,100164.47
2023-05-18T04:47:58.586Z,100171.72
2023-05-18T04:50:25.999Z,100176.16
2023-05-18T04:52:53.922Z,100183.19
2023-05-18T04:55:25.850Z,100190.22
2023-05-18T04:57:56.629Z,100182.28
2023-05-18T05:00:26.931Z,100186.59
2023-05-18T05:02:56.187Z,100191.94
2023-05-18T05:05:25.390Z,100185.69
2023-05-18T05:07:54.104Z,100184.72
2023-05-18T05:10:21.951Z,100182.03
2023-05-18T05:12:51.381Z,100184.09
2023-05-18T05:15:20.429Z,100193.72
2023-05-18T05:17:50.188Z,100194.47
2023-05-18T05:20:17.969Z,100198.06
2023-05-18T05:22:45.710Z,100201.47
2023-05-18T05:25:16.241Z,100206.66
2023-05-18T05:27:43.493Z,100201.25
2023-05-18T05:30:11.355Z,100196.00
2023-05-18T05:32:39.802Z,100196.78
2023-05-18T05:35:07.930Z,100201.19
2023-05-18T05:37:36.564Z,100190.75
2023-05-18T05:40:09.602Z,100193.31
2023-05-18T05:42:42.300Z,100194.91
2023-05-18T05:45:10.181Z,100195.94
2023-05-18T05:47:50.185Z,100204.72
2023-05-18T05:50:19.407Z,100194.97
2023-05-18T05:52:48.744Z,100195.81
2023-05-18T05:55:16.857Z,100191.72
2023-05-18T05:57:44.089Z,100194.28
2023-05-18T06:00:13.197Z,100199.69
2023-05-18T06:02:51.739Z,100195.22
2023-05-18T06:05:26.129Z,100201.47
2023-05-18T06:07:55.389Z,100202.56
2023-05-18T06:10:22.730Z,100211.50
2023-05-18T06:12:50.522Z,100212.50
2023-05-18T06:15:19.176Z,100219.66
2023-05-18T06:17:47.122Z,100215.63
2023-05-18T06:20:14.567Z,100219.34
2023-05-18T06:22:41.938Z,100214.22
2023-05-18T06:25:22.283Z,100214.47
2023-05-18T06:28:02.429Z,100219.22
2023-05-18T06:30:43.067Z,100221.91
2023-05-18T06:33:16.718Z,100225.41
2023-05-18T06:35:44.059Z,100224.72
2023-05-18T06:38:11.494Z,100225.13
2023-05-18T06:40:38.912Z,100220.00
2023-05-18T06:43:06.238Z,100226.25
2023-05-18T06:45:43.785Z,100228.88
2023-05-18T06:48:16.359Z,100225.50
2023-05-18T06:50:43.819Z,100229.97
2023-05-18T06:53:12.903Z,100232.78
2023-05-18T06:55:40.301Z,100227.66
2023-05-18T06:58:07.546Z,100229.78
2023-05-18T07:00:35.025Z,100230.69
2023-05-18T07:03:03.737Z,100225.56
2023-05-18T07:05:31.820Z,100225.66
2023-05-18T07:07:59.341Z,100222.19
2023-05-18T07:10:28.822Z,100216.28
2023-05-18T07:12:56.509Z,100222.56
2023-05-18T07:15:25.914Z,100222.59
2023-05-18T07:17:53.294Z,100221.97
2023-05-18T07:20:20.725Z,100227.81
2023-05-18T07:22:47.928Z,100233.13
2023-05-18T07:25:15.145Z,100230.44
2023-05-18T07:27:42.378Z,100226.94
2023-05-18T07:30:10.413Z,100229.63
2023-05-18T07:32:38.014Z,100229.97
2023-05-18T07:35:05.962Z,100233.44
2023-05-18T07:37:33.146Z,100231.69
2023-05-18T07:40:00.606Z,100239.53
2023-05-18T07:42:28.089Z,100239.47
2023-05-18T07:44:55.401Z,100245.66
2023-05-18T07:47:23.300Z,100234.91
2023-05-18T07:49:50.668Z,100238.34
2023-05-18T07:52:17.882Z,100232.56
2023-05-18T07:54:45.199Z,100234.34
2023-05-18T07:57:12.959Z,100232.66
2023-05-18T07:59:40.366Z,100231.09
2023-05-18T08:02:07.667Z,100235.53
2023-05-18T08:04:35.050Z,100237.25
2023-05-18T08:07:03.225Z,100236.41
2023-05-18T08:09:31.191Z,100239.28
2023-05-18T08:11:58.631Z,100237.59
2023-05-18T08:14:26.107Z,100236.69
2023-05-18T08:16:53.352Z,100239.50
2023-05-18T08:19:20.598Z,100232.41
2023-05-18T08:21:47.853Z,100236.88
2023-05-18T08:24:15.105Z,100238.81
2023-05-18T08:26:42.307Z,100240.81
2023-05-18T08:29:10.282Z,100239.09
2023-05-18T08:31:39.917Z,100235.66
2023-05-18T08:34:08.252Z,100236.94
2023-05-18T08:36:36.766Z,100235.84
2023-05-18T08:39:05.510Z,100235.84
2023-05-18T08:41:41.348Z,100233.91
2023-05-18T08:44:30.695Z,100234.16
2023-05-18T08:46:58.766Z,100231.78
2023-05-18T08:49:28.628Z,100232.91
2023-05-18T08:52:00.205Z,100228.53
2023-05-18T08:54:27.817Z,100233.19
2023-05-18T08:56:55.990Z,100226.25
2023-05-18T08:59:31.921Z,100224.53
2023-05-18T09:01:59.657Z,100227.84
2023-05-18T09:04:27.868Z,100218.78
2023-05-18T09:06:56.479Z,100218.88
2023-05-18T09:09:25.568Z,100213.97
2023-05-18T09:11:53.067Z,100212.34
2023-05-18T09:14:25.621Z,100210.63
2023-05-18T09:16:53.719Z,100213.28
2023-05-18T09:19:21.336Z,100211.81
2023-05-18T09:21:48.637Z,100211.91
2023-05-18T09:24:15.978Z,100213.47
2023-05-18T09:26:43.261Z,100211.06
2023-05-18T09:29:23.954Z,100223.72
2023-05-18T09:31:51.998Z,100217.72
2023-05-18T09:34:19.413Z,100224.84
2023-05-18T09:36:52.986Z,100224.78
2023-05-18T09:39:20.441Z,100221.44
2023-05-18T09:41:55.131Z,100228.53
2023-05-18T09:44:34.167Z,100222.34
2023-05-18T09:47:02.680Z,100229.75
2023-05-18T09:49:31.077Z,100224.41
2023-05-18T09:52:00.198Z,100230.84
2023-05-18T09:54:27.704Z,100231.00
2023-05-18T09:57:09.406Z,100232.53
2023-05-18T09:59:37.969Z,100225.06
2023-05-18T10:02:08.373Z,100226.13
2023-05-18T10:04:41.635Z,100222.66
2023-05-18T10:07:17.188Z,100223.84
2023-05-18T10:09:46.192Z,100225.16
2023-05-18T10:12:19.809Z,100217.66
2023-05-18T10:14:49.241Z,100213.91
2023-05-18T10:17:17.631Z,100210.63
2023-05-18T10:19:46.908Z,100205.84
2023-05-18T10:22:20.896Z,100200.72
2023-05-18T10:24:52.777Z,100200.03
2023-05-18T10:27:28.348Z,100204.19
2023-05-18T10:29:58.949Z,100195.75
2023-05-18T10:32:28.411Z,100206.13
2023-05-18T10:34:57.287Z,100205.66
2023-05-18T10:37:26.577Z,100201.06
2023-05-18T10:39:56.007Z,100205.13
2023-05-18T10:42:25.942Z,100209.16
2023-05-18T10:44:58.290Z,100209.00
2023-05-18T10:47:27.623Z,100202.84
2023-05-18T10:49:55.667Z,100202.09
2023-05-18T10:52:26.480Z,100199.25
2023-05-18T10:54:54.423Z,100196.03
2023-05-18T10:57:22.062Z,100200.88
2023-05-18T10:59:50.070Z,100200.00
2023-05-18T11:02:19.669Z,100190.56
2023-05-18T11:04:48.003Z,100185.53
2023-05-18T11:07:15.996Z,100187.94
2023-05-18T11:09:44.683Z,100185.28
2023-05-18T11:12:20.161Z,100196.41
2023-05-18T11:14:57.755Z,100189.84
2023-05-18T11:17:29.424Z,100183.09
2023-05-18T11:20:05.905Z,100191.03
2023-05-18T11:22:58.316Z,100192.94
2023-05-18T11:25:28.122Z,100192.09
2023-05-18T11:28:10.138Z,100191.41
2023-05-18T11:30:37.258Z,100185.19
2023-05-18T11:33:28.261Z,100182.81
2023-05-18T11:36:14.533Z,100172.75
2023-05-18T11:39:11.612Z,100178.31
2023-05-18T11:41:44.516Z,100169.06
2023-05-18T11:44:21.867Z,100167.13
2023-05-18T11:46:58.957Z,100158.91
2023-05-18T11:49:47.582Z,100160.00
2023-05-18T11:52:22.293Z,100161.75
2023-05-18T11:54:55.568Z,100153.50
2023-05-18T11:57:40.570Z,100163.16
2023-05-18T12:00:13.639Z,100145.06
2023-05-18T12:02:48.570Z,100148.28
2023-05-18T12:05:16.360Z,100151.31
2023-05-18T12:07:44.991Z,100144.25
2023-05-18T12:10:17.928Z,100140.75
2023-05-18T12:12:51.886Z,100148.69
2023-05-18T12:15:23.911Z,100146.81
2023-05-18T12:17:51.978Z,100143.91
2023-05-18T12:20:27.252Z,100140.75
2023-05-18T12:22:56.235Z,100138.88
2023-05-18T12:25:28.000Z,100133.50
2023-05-18T12:27:57.099Z,100129.09
2023-05-18T12:30:34.814Z,100125.56
2023-05-18T12:33:03.602Z,100128.53
2023-05-18T12:35:32.953Z,100122.91
2023-05-18T12:38:01.356Z,100120.25
2023-05-18T12:40:44.080Z,100120.06
2023-05-18T12:43:11.452Z,100117.22
2023-05-18T12:45:38.860Z,100116.44
2023-05-18T12:48:06.752Z,100116.03
2023-05-18T12:50:34.902Z,100101.59
2023-05-18T12:53:02.187Z,100105.06
2023-05-18T12:55:31.194Z,100105.97
2023-05-18T12:58:19.762Z,100115.66
2023-05-18T13:00:48.991Z,100107.75
2023-05-18T13:03:22.001Z,100101.56
2023-05-18T13:06:08.267Z,100102.19
2023-05-18T13:08:37.078Z,100104.53
2023-05-18T13:11:14.358Z,100101.25
2023-05-18T13:14:05.730Z,100099.00
2023-05-18T13:16:44.890Z,100093.09
2023-05-18T13:19:18.994Z,100093.63
2023-05-18T13:21:57.735Z,100089.44
2023-05-18T13:24:24.945Z,100087.91
2023-05-18T13:26:52.110Z,100086.00
2023-05-18T13:29:19.387Z,100087.03
2023-05-18T13:31:46.631Z,100092.66
2023-05-18T13:34:13.865Z,100089.09
2023-05-18T13:36:41.444Z,100087.47
2023-05-18T13:39:09.669Z,100087.25
2023-05-18T13:41:37.132Z,100082.19
2023-05-18T13:44:04.560Z,100078.56
2023-05-18T13:46:32.038Z,100080.31
2023-05-18T13:48:59.219Z,100082.56
2023-05-18T13:51:26.315Z,100087.34
2023-05-18T13:53:53.729Z,100098.41
2023-05-18T13:56:21.218Z,100092.72
2023-05-18T13:58:50.074Z,100089.16
2023-05-18T14:01:17.864Z,100071.81
2023-05-18T14:03:45.483Z,100077.16
2023-05-18T14:06:12.671Z,100065.28
2023-05-18T14:08:39.839Z,100069.78
2023-05-18T14:11:06.979Z,100068.97
2023-05-18T14:13:34.146Z,100063.66
2023-05-18T14:16:01.620Z,100061.44
2023-05-18T14:18:28.815Z,100061.56
2023-05-18T14:20:58.605Z,100066.81
2023-05-18T14:23:25.992Z,100072.00
2023-05-18T14:25:53.165Z,100068.50
2023-05-18T14:28:20.325Z,100069.34
2023-05-18T14:30:47.606Z,100071.81
2023-05-18T14:33:14.875Z,100071.25
2023-05-18T14:35:42.070Z,100068.47
2023-05-18T14:38:09.246Z,100073.94
2023-05-18T14:40:36.576Z,100072.69
2023-05-18T14:43:03.693Z,100066.47
2023-05-18T14:45:31.292Z,100069.09
2023-05-18T14:47:58.484Z,100069.53
2023-05-18T14:50:25.749Z,100065.47
2023-05-18T14:52:54.777Z,100059.84
2023-05-18T14:55:21.970Z,100061.88
2023-05-18T14:57:49.128Z,100054.13
2023-05-18T15:00:16.725Z,100062.56
2023-05-18T15:02:44.000Z,100069.13
2023-05-18T15:05:11.739Z,100055.88
2023-05-18T15:07:39.031Z,100057.69
2023-05-18T15:10:07.506Z,100055.91
2023-05-18T15:12:34.661Z,100061.09
2023-05-18T15:15:02.041Z,100054.41
2023-05-18T15:17:29.232Z,100054.53
2023-05-18T15:19:56.440Z,100051.03
2023-05-18T15:22:23.633Z,100053.44
2023-05-18T15:24:51.012Z,100053.56
2023-05-18T15:27:18.359Z,100049.44
2023-05-18T15:29:46.642Z,100051.19
2023-05-18T15:32:13.824Z,100062.38
2023-05-18T15:34:41.326Z,100051.78
2023-05-18T15:37:08.444Z,100051.75
2023-05-18T15:39:38.286Z,100052.53
2023-05-18T15:42:06.225Z,100058.53
2023-05-18T15:44:33.360Z,100049.53
2023-05-18T15:47:01.832Z,100055.63
2023-05-18T15:49:29.473Z,100049.44
2023-05-18T15:51:56.811Z,100041.41
2023-05-18T15:54:23.945Z,100043.00
2023-05-18T15:56:51.216Z,100045.53
2023-05-18T15:59:18.400Z,100049.06
2023-05-18T16:01:45.944Z,100044.66
2023-05-18T16:04:13.256Z,100050.88
2023-05-18T16:06:40.574Z,100050.91
2023-05-18T16:09:07.770Z,100051.56
2023-05-18T16:11:36.036Z,100047.22
2023-05-18T16:14:04.556Z,100045.56
2023-05-18T16:16:31.854Z,100047.56
2023-05-18T16:19:00.670Z,100047.13
2023-05-18T16:21:27.959Z,100041.09
2023-05-18T16:23:56.316Z,100040.19
2023-05-18T16:26:24.465Z,100030.41
2023-05-18T16:28:51.699Z,100032.19
2023-05-18T16:31:18.890Z,100035.69
2023-05-18T16:33:46.035Z,100039.06
2023-05-18T16:36:13.366Z,100035.75
2023-05-18T16:38:41.096Z,100040.84
2023-05-18T16:41:08.295Z,100027.63
2023-05-18T16:43:35.798Z,100038.19
2023-05-18T16:46:02.994Z,100033.59
2023-05-18T16:48:30.190Z,100044.09
2023-05-18T16:50:57.522Z,100043.91
2023-05-18T16:53:24.690Z,100047.38
2023-05-18T16:55:51.981Z,100045.47
2023-05-18T16:58:19.905Z,100056.03
2023-05-18T17:00:47.030Z,100052.41
2023-05-18T17:03:17.168Z,100060.22
2023-05-18T17:05:44.531Z,100059.28
2023-05-18T17:08:12.517Z,100051.19
2023-05-18T17:10:40.868Z,100057.22
2023-05-18T17:13:08.535Z,100058.91
2023-05-18T17:15:35.993Z,100057.94
2023-05-18T17:18:03.188Z,100059.59
2023-05-18T17:20:30.528Z,100063.09
2023-05-18T17:22:59.878Z,100056.81
2023-05-18T17:25:28.411Z,100061.13
2023-05-18T17:27:55.566Z,100062.81
2023-05-18T17:30:22.700Z,100063.56
2023-05-18T17:32:50.960Z,100064.41
2023-05-18T17:35:18.347Z,100060.78
2023-05-18T17:37:46.479Z,100064.16
2023-05-18T17:40:13.750Z,100063.94
2023-05-18T17:42:41.007Z,100059.81
2023-05-18T17:45:09.842Z,100062.09
2023-05-18T17:47:38.347Z,100064.50
2023-05-18T17:50:06.624Z,100065.25
2023-05-18T17:52:33.900Z,100065.19
2023-05-18T17:55:01.466Z,100074.03
2023-05-18T17:57:30.070Z,100076.75
2023-05-18T17:59:57.390Z,100079.44
2023-05-18T18:02:24.620Z,100087.16
2023-05-18T18:04:51.874Z,100082.47
2023-05-18T18:07:19.048Z,100085.84
2023-05-18T18:09:46.344Z,100090.13
2023-05-18T18:12:13.561Z,100098.00
2023-05-18T18:14:40.763Z,100085.34
2023-05-18T18:17:08.252Z,100090.44
2023-05-18T18:19:35.571Z,100090.53
2023-05-18T18:22:03.052Z,100094.59
2023-05-18T18:24:30.344Z,100107.81
2023-05-18T18:26:57.564Z,100105.97
2023-05-18T18:29:25.998Z,100101.22
2023-05-18T18:31:53.264Z,100113.53
2023-05-18T18:34:20.505Z,100106.34
2023-05-18T18:36:48.576Z,100108.91
2023-05-18T18:39:15.897Z,100101.84
2023-05-18T18:41:43.068Z,100106.19
2023-05-18T18:44:10.386Z,100107.84
2023-05-18T18:46:37.702Z,100114.84
2023-05-18T18:49:05.157Z,100120.13
2023-05-18T18:51:32.685Z,100113.06
2023-05-18T18:54:00.262Z,100113.81
2023-05-18T18:56:27.602Z,100115.47
2023-05-18T18:58:54.803Z,100117.94
2023-05-18T19:01:22.140Z,100115.31
2023-05-18T19:03:49.508Z,100120.63
2023-05-18T19:06:17.378Z,100129.38
2023-05-18T19:08:44.639Z,100130.22
2023-05-18T19:11:11.954Z,100136.41
2023-05-18T19:13:39.159Z,100123.16
2023-05-18T19:16:06.714Z,100127.59
2023-05-18T19:18:33.969Z,100132.84
2023-05-18T19:21:01.420Z,100132.75
2023-05-18T19:23:28.801Z,100142.47
2023-05-18T19:25:56.329Z,100139.69
2023-05-18T19:28:23.529Z,100142.22
2023-05-18T19:30:50.756Z,100147.34
2023-05-18T19:33:18.379Z,100151.66
2023-05-18T19:35:45.682Z,100156.84
2023-05-18T19:38:12.891Z,100156.72
2023-05-18T19:40:40.065Z,100155.78
2023-05-18T19:43:07.539Z,100162.75
2023-05-18T19:45:35.163Z,100156.59
2023-05-18T19:48:02.917Z,100153.09
2023-05-18T19:50:33.529Z,100161.78
2023-05-18T19:53:05.544Z,100164.38
2023-05-18T19:55:33.926Z,100165.25
2023-05-18T19:58:09.793Z,100163.38
2023-05-18T20:00:38.020Z,100164.19
2023-05-18T20:03:05.806Z,100171.06
2023-05-18T20:05:33.408Z,100176.19
2023-05-18T20:08:02.970Z,100181.41
2023-05-18T20:10:33.480Z,100180.41
2023-05-18T20:13:01.453Z,100176.69
2023-05-18T20:15:30.595Z,100177.50
2023-05-18T20:17:58.247Z,100177.41
2023-05-18T20:20:30.449Z,100188.72
2023-05-18T20:22:58.125Z,100180.69
2023-05-18T20:25:26.597Z,100183.25
2023-05-18T20:27:56.751Z,100189.44
2023-05-18T20:30:23.920Z,100193.03
2023-05-18T20:32:51.225Z,100185.19
2023-05-18T20:35:19.447Z,100196.59
2023-05-18T20:37:46.934Z,100196.69
2023-05-18T20:40:14.259Z,100191.50
2023-05-18T20:42:41.618Z,100196.88
2023-05-18T20:45:10.063Z,100197.88
2023-05-18T20:47:37.407Z,100195.19
2023-05-18T20:50:05.347Z,100189.81
2023-05-18T20:52:32.787Z,100188.06
2023-05-18T20:55:00.108Z,100192.41
2023-05-18T20:57:30.907Z,100195.00
2023-05-18T20:59:58.146Z,100186.13
2023-05-18T21:02:26.645Z,100187.88
2023-05-18T21:04:57.755Z,100188.72
2023-05-18T21:07:25.237Z,100190.50
2023-05-18T21:09:52.486Z,100183.50
2023-05-18T21:12:19.740Z,100185.31
2023-05-18T21:14:46.968Z,100187.94
2023-05-18T21:17:15.548Z,100187.03
2023-05-18T21:19:42.779Z,100190.59
2023-05-18T21:22:11.075Z,100186.13
2023-05-18T21:24:38.193Z,100194.06
2023-05-18T21:27:06.225Z,100191.28
2023-05-18T21:29:33.442Z,100191.22
2023-05-18T21:32:00.813Z,100192.94
2023-05-18T21:34:28.537Z,100196.41
2023-05-18T21:36:58.978Z,100193.78
2023-05-18T21:39:26.193Z,100195.53
2023-05-18T21:41:53.422Z,100192.94
2023-05-18T21:44:20.886Z,100190.31
2023-05-18T21:46:48.142Z,100200.81
2023-05-18T21:49:15.491Z,100190.25
2023-05-18T21:51:42.677Z,100205.19
2023-05-18T21:54:10.079Z,100205.19
2023-05-18T21:56:37.356Z,100203.41
2023-05-18T21:59:04.648Z,100202.50
2023-05-18T22:01:31.946Z,100207.78
2023-05-18T22:03:59.161Z,100198.91
2023-05-18T22:06:26.485Z,100201.50
2023-05-18T22:08:53.677Z,100200.63
2023-05-18T22:11:21.832Z,100201.44
2023-05-18T22:13:48.997Z,100201.41
2023-05-18T22:16:16.263Z,100199.63
2023-05-18T22:18:43.538Z,100200.47
2023-05-18T22:21:10.787Z,100204.84
2023-05-18T22:23:39.133Z,100204.03
2023-05-18T22:26:07.065Z,100208.38
2023-05-18T22:28:34.437Z,100205.66
2023-05-18T22:31:01.633Z,100201.09
2023-05-18T22:33:28.876Z,100214.25
2023-05-18T22:35:56.516Z,100206.22
2023-05-18T22:38:23.735Z,100205.34
2023-05-18T22:40:53.945Z,100202.63
2023-05-18T22:43:22.146Z,100208.00
2023-05-18T22:45:49.807Z,100205.25
2023-05-18T22:48:17.134Z,100207.91
2023-05-18T22:50:45.155Z,100206.09
2023-05-18T22:53:12.466Z,100201.59
2023-05-18T22:55:39.699Z,100202.50
2023-05-18T22:58:06.882Z,100202.41
2023-05-18T23:00:34.255Z,100204.97
2023-05-18T23:03:01.547Z,100204.03
2023-05-18T23:05:28.930Z,100200.59
2023-05-18T23:07:58.059Z,100200.59
2023-05-18T23:10:26.429Z,100209.28
2023-05-18T23:12:55.586Z,100202.22
2023-05-18T23:15:23.335Z,100201.31
2023-05-18T23:17:54.618Z,100200.41
2023-05-18T23:20:25.439Z,100193.34
2023-05-18T23:22:52.652Z,100195.03
2023-05-18T23:25:19.963Z,100193.19
2023-05-18T23:27:47.169Z,100189.56
2023-05-18T23:30:14.387Z,100186.09
2023-05-18T23:32:42.194Z,100185.19
2023-05-18T23:35:13.226Z,100185.13
2023-05-18T23:37:42.542Z,100186.13
2023-05-18T23:40:12.455Z,100188.69
2023-05-18T23:42:40.115Z,100195.69
2023-05-18T23:45:10.859Z,100187.72
2023-05-18T23:47:38.458Z,100189.44
2023-05-18T23:50:07.181Z,100192.03
2023-05-18T23:52:35.575Z,100184.13
2023-05-18T23:55:05.230Z,100185.88
2023-05-18T23:57:33.092Z,100177.94
